createdAt,value
2018-08-04T00:01:42.762Z,3.03
2018-08-04T00:04:11.176Z,5.87
2018-08-04T00:06:39.590Z,2.73
2018-08-04T00:09:11.012Z,2.97
2018-08-04T00:11:39.424Z,4.73
2018-08-04T00:14:07.915Z,3.00
2018-08-04T00:16:36.444Z,2.43
2018-08-04T00:19:05.208Z,3.67
2018-08-04T00:21:33.724Z,3.33
2018-08-04T00:24:02.688Z,3.27
2018-08-04T00:26:33.863Z,1.90
2018-08-04T00:29:03.072Z,1.93
2018-08-04T00:31:33.383Z,2.87
2018-08-04T00:34:01.759Z,2.43
2018-08-04T00:36:30.108Z,2.93
2018-08-04T00:38:58.601Z,2.13
2018-08-04T00:41:26.951Z,3.70
2018-08-04T00:43:56.632Z,1.73
2018-08-04T00:46:25.025Z,2.20
2018-08-04T00:48:53.519Z,1.83
2018-08-04T00:51:22.053Z,2.70
2018-08-04T00:53:50.451Z,1.40
2018-08-04T00:56:18.803Z,2.00
2018-08-04T00:58:47.172Z,2.97
2018-08-04T01:01:15.688Z,1.73
2018-08-04T01:03:44.272Z,2.87
2018-08-04T01:06:12.632Z,2.77
2018-08-04T01:08:41.795Z,1.87
2018-08-04T01:11:16.712Z,2.13
2018-08-04T01:13:46.074Z,2.17
2018-08-04T01:16:14.394Z,2.30
2018-08-04T01:18:42.752Z,1.60
2018-08-04T01:21:11.097Z,2.70
2018-08-04T01:23:39.491Z,2.80
2018-08-04T01:26:08.004Z,1.50
2018-08-04T01:28:36.380Z,1.27
2018-08-04T01:31:04.748Z,1.63
2018-08-04T01:33:33.109Z,3.17
2018-08-04T01:36:01.501Z,1.77
2018-08-04T01:38:29.851Z,2.70
2018-08-04T01:40:58.299Z,1.80
2018-08-04T01:43:26.726Z,1.70
2018-08-04T01:45:55.094Z,1.83
2018-08-04T01:48:23.455Z,1.57
2018-08-04T01:50:51.839Z,1.60
2018-08-04T01:53:20.213Z,1.50
2018-08-04T01:55:49.113Z,2.60
2018-08-04T01:58:17.500Z,2.07
2018-08-04T02:00:46.380Z,1.63
2018-08-04T02:03:15.085Z,2.23
2018-08-04T02:05:43.469Z,3.60
2018-08-04T02:08:11.899Z,2.03
2018-08-04T02:10:40.460Z,2.20
2018-08-04T02:13:08.900Z,2.07
2018-08-04T02:15:37.471Z,2.57
2018-08-04T02:18:06.109Z,1.77
2018-08-04T02:20:34.535Z,2.23
2018-08-04T02:23:02.897Z,2.47
2018-08-04T02:25:31.509Z,3.43
2018-08-04T02:27:59.887Z,3.57
2018-08-04T02:30:28.382Z,4.47
2018-08-04T02:32:57.499Z,2.40
2018-08-04T02:35:25.896Z,1.50
2018-08-04T02:37:54.268Z,2.20
2018-08-04T02:40:22.810Z,1.60
2018-08-04T02:42:51.166Z,1.40
2018-08-04T02:45:19.630Z,3.40
2018-08-04T02:47:48.013Z,3.23
2018-08-04T02:50:16.436Z,1.50
2018-08-04T02:52:45.123Z,1.70
2018-08-04T02:55:13.596Z,2.23
2018-08-04T02:57:42.124Z,3.23
2018-08-04T03:00:10.488Z,1.40
2018-08-04T03:02:38.872Z,2.80
2018-08-04T03:05:08.134Z,1.67
2018-08-04T03:07:36.515Z,1.87
2018-08-04T03:10:05.648Z,1.97
2018-08-04T03:12:34.032Z,2.93
2018-08-04T03:15:02.387Z,1.93
2018-08-04T03:17:30.926Z,2.33
2018-08-04T03:19:59.416Z,2.33
2018-08-04T03:22:27.928Z,2.73
2018-08-04T03:24:56.313Z,2.50
2018-08-04T03:27:24.706Z,1.80
2018-08-04T03:29:53.179Z,1.53
2018-08-04T03:32:21.519Z,2.17
2018-08-04T03:34:49.920Z,1.40
2018-08-04T03:37:18.816Z,2.13
2018-08-04T03:39:47.711Z,2.07
2018-08-04T03:42:16.083Z,1.30
2018-08-04T03:44:44.444Z,1.83
2018-08-04T03:47:12.951Z,2.93
2018-08-04T03:49:41.328Z,3.27
2018-08-04T03:52:10.379Z,1.63
2018-08-04T03:54:38.821Z,4.90
2018-08-04T03:57:07.193Z,1.60
2018-08-04T03:59:35.756Z,1.40
2018-08-04T04:02:04.218Z,2.13
2018-08-04T04:04:32.595Z,1.30
2018-08-04T04:07:01.171Z,1.30
2018-08-04T04:09:29.532Z,1.30
2018-08-04T04:11:57.876Z,1.50
2018-08-04T04:14:26.302Z,1.47
2018-08-04T04:16:54.689Z,2.60
2018-08-04T04:19:23.091Z,2.13
2018-08-04T04:21:51.719Z,1.40
2018-08-04T04:24:20.668Z,3.47
2018-08-04T04:26:49.594Z,2.90
2018-08-04T04:29:18.086Z,1.40
2018-08-04T04:31:46.619Z,1.43
2018-08-04T04:34:14.963Z,2.07
2018-08-04T04:36:43.544Z,2.03
2018-08-04T04:39:12.173Z,1.83
2018-08-04T04:41:41.059Z,1.57
2018-08-04T04:44:09.743Z,2.40
2018-08-04T04:46:39.372Z,2.03
2018-08-04T04:49:09.479Z,2.57
2018-08-04T04:51:38.072Z,1.70
2018-08-04T04:54:06.420Z,1.63
2018-08-04T04:56:35.343Z,2.10
2018-08-04T04:59:03.924Z,2.13
2018-08-04T05:01:32.513Z,2.07
2018-08-04T05:04:01.007Z,1.87
2018-08-04T05:06:29.800Z,2.40
2018-08-04T05:08:58.618Z,2.80
2018-08-04T05:11:27.048Z,3.40
2018-08-04T05:13:55.624Z,2.37
2018-08-04T05:16:24.012Z,2.93
2018-08-04T05:18:52.376Z,2.23
2018-08-04T05:21:20.744Z,2.80
2018-08-04T05:23:49.135Z,1.90
2018-08-04T05:26:17.500Z,3.17
2018-08-04T05:28:45.875Z,4.10
2018-08-04T05:31:14.458Z,2.10
2018-08-04T05:33:42.844Z,3.30
2018-08-04T05:36:11.202Z,2.47
2018-08-04T05:38:39.627Z,1.87
2018-08-04T05:41:08.009Z,1.70
2018-08-04T05:43:36.487Z,2.50
2018-08-04T05:46:04.888Z,3.27
2018-08-04T05:48:33.380Z,2.93
2018-08-04T05:51:01.829Z,2.20
2018-08-04T05:53:30.807Z,2.67
2018-08-04T05:55:59.157Z,2.27
2018-08-04T05:58:27.520Z,5.50
2018-08-04T06:00:55.879Z,5.73
2018-08-04T06:03:24.003Z,3.73
2018-08-04T06:05:52.367Z,4.23
2018-08-04T06:08:20.724Z,6.20
2018-08-04T06:10:49.188Z,3.00
2018-08-04T06:13:17.924Z,4.93
2018-08-04T06:15:46.307Z,1.87
2018-08-04T06:18:14.696Z,2.93
2018-08-04T06:20:43.124Z,3.40
2018-08-04T06:23:11.495Z,3.57
2018-08-04T06:25:39.857Z,2.17
2018-08-04T06:28:08.537Z,3.63
2018-08-04T06:30:36.689Z,2.90
2018-08-04T06:33:04.971Z,2.93
2018-08-04T06:35:33.354Z,4.47
2018-08-04T06:38:02.002Z,2.57
2018-08-04T06:40:30.724Z,2.63
2018-08-04T06:42:59.057Z,2.40
2018-08-04T06:45:27.564Z,3.33
2018-08-04T06:47:55.934Z,2.90
2018-08-04T06:50:24.941Z,1.77
2018-08-04T06:52:53.303Z,3.43
2018-08-04T06:55:21.668Z,2.53
2018-08-04T06:57:50.241Z,1.77
2018-08-04T07:00:18.818Z,2.53
2018-08-04T07:02:47.289Z,4.07
2018-08-04T07:05:15.752Z,3.57
2018-08-04T07:07:44.160Z,1.57
2018-08-04T07:10:12.795Z,1.50
2018-08-04T07:12:41.244Z,2.03
2018-08-04T07:15:09.884Z,2.23
2018-08-04T07:17:38.926Z,2.73
2018-08-04T07:20:07.285Z,4.27
2018-08-04T07:22:35.656Z,1.77
2018-08-04T07:25:04.472Z,3.00
2018-08-04T07:27:33.238Z,2.87
2018-08-04T07:30:01.591Z,2.43
2018-08-04T07:32:29.960Z,3.20
2018-08-04T07:35:05.161Z,1.80
2018-08-04T07:37:33.537Z,2.17
2018-08-04T07:40:01.896Z,3.30
2018-08-04T07:42:30.483Z,2.33
2018-08-04T07:44:59.875Z,3.90
2018-08-04T07:47:28.294Z,1.40
2018-08-04T07:49:56.721Z,3.27
2018-08-04T07:52:25.224Z,2.20
2018-08-04T07:54:53.652Z,1.43
2018-08-04T07:57:22.264Z,2.43
2018-08-04T07:59:50.621Z,2.93
2018-08-04T08:02:19.032Z,2.13
2018-08-04T08:04:47.593Z,4.03
2018-08-04T08:07:16.486Z,2.60
2018-08-04T08:09:44.926Z,2.20
2018-08-04T08:12:14.102Z,2.80
2018-08-04T08:14:42.623Z,3.63
2018-08-04T08:17:11.081Z,3.30
2018-08-04T08:19:39.778Z,4.33
2018-08-04T08:22:08.167Z,3.33
2018-08-04T08:24:36.575Z,1.73
2018-08-04T08:27:05.017Z,1.50
2018-08-04T08:29:34.253Z,3.27
2018-08-04T08:32:02.636Z,8.57
2018-08-04T08:34:31.040Z,2.63
2018-08-04T08:36:59.424Z,3.57
2018-08-04T08:39:27.793Z,5.50
2018-08-04T08:41:56.353Z,3.73
2018-08-04T08:44:24.849Z,3.07
2018-08-04T08:46:53.212Z,4.17
2018-08-04T08:49:22.252Z,2.83
2018-08-04T08:51:50.599Z,2.27
2018-08-04T08:54:19.103Z,2.50
2018-08-04T08:56:47.522Z,3.67
2018-08-04T08:59:15.911Z,3.90
2018-08-04T09:01:44.542Z,2.00
2018-08-04T09:04:12.915Z,3.30
2018-08-04T09:06:41.360Z,3.10
2018-08-04T09:09:10.688Z,3.40
2018-08-04T09:11:39.658Z,2.23
2018-08-04T09:14:08.152Z,3.10
2018-08-04T09:16:36.643Z,3.33
2018-08-04T09:19:05.673Z,3.83
2018-08-04T09:21:34.628Z,1.60
2018-08-04T09:24:03.048Z,2.53
2018-08-04T09:26:31.401Z,1.70
2018-08-04T09:28:59.876Z,3.33
2018-08-04T09:31:28.235Z,2.80
2018-08-04T09:33:57.324Z,2.67
2018-08-04T09:36:25.916Z,2.03
2018-08-04T09:38:54.288Z,2.27
2018-08-04T09:41:22.794Z,3.00
2018-08-04T09:43:51.390Z,3.00
2018-08-04T09:46:19.765Z,3.67
2018-08-04T09:48:48.556Z,3.57
2018-08-04T09:51:17.054Z,2.33
2018-08-04T09:53:46.299Z,2.97
2018-08-04T09:56:15.487Z,2.87
2018-08-04T09:58:43.877Z,2.57
2018-08-04T10:01:17.692Z,3.23
2018-08-04T10:03:46.111Z,3.20
2018-08-04T10:06:15.178Z,2.57
2018-08-04T10:08:43.276Z,7.37
2018-08-04T10:11:11.357Z,2.23
2018-08-04T10:13:39.832Z,3.80
2018-08-04T10:16:07.899Z,4.63
2018-08-04T10:18:36.293Z,4.57
2018-08-04T10:21:04.396Z,2.30
2018-08-04T10:23:32.840Z,3.43
2018-08-04T10:26:01.342Z,3.37
2018-08-04T10:28:29.940Z,5.53
2018-08-04T10:30:58.571Z,3.53
2018-08-04T10:33:26.903Z,4.83
2018-08-04T10:35:55.293Z,3.50
2018-08-04T10:38:24.537Z,2.27
2018-08-04T10:40:53.268Z,3.73
2018-08-04T10:43:21.641Z,3.97
2018-08-04T10:45:50.285Z,2.40
2018-08-04T10:48:18.639Z,4.13
2018-08-04T10:50:46.987Z,2.87
2018-08-04T10:53:15.569Z,2.70
2018-08-04T10:55:43.952Z,4.03
2018-08-04T10:58:12.326Z,1.90
2018-08-04T11:00:40.745Z,3.50
2018-08-04T11:03:09.317Z,4.30
2018-08-04T11:05:37.674Z,2.20
2018-08-04T11:08:06.141Z,2.83
2018-08-04T11:10:34.517Z,3.80
2018-08-04T11:13:03.016Z,6.10
2018-08-04T11:15:31.447Z,3.80
2018-08-04T11:18:01.061Z,2.47
2018-08-04T11:20:30.044Z,5.33
2018-08-04T11:22:58.520Z,1.70
2018-08-04T11:25:26.871Z,2.03
2018-08-04T11:27:55.929Z,1.83
2018-08-04T11:30:24.572Z,2.33
2018-08-04T11:32:53.119Z,2.87
2018-08-04T11:35:21.513Z,1.73
2018-08-04T11:37:49.940Z,2.40
2018-08-04T11:40:18.293Z,2.23
2018-08-04T11:42:47.401Z,3.70
2018-08-04T11:45:15.894Z,2.57
2018-08-04T11:47:44.316Z,2.90
2018-08-04T11:50:12.913Z,2.17
2018-08-04T11:52:41.348Z,4.60
2018-08-04T11:55:09.703Z,2.70
2018-08-04T11:57:37.788Z,3.57
2018-08-04T12:00:06.437Z,2.57
2018-08-04T12:02:34.788Z,2.47
2018-08-04T12:05:03.421Z,2.77
2018-08-04T12:07:31.781Z,1.80
2018-08-04T12:10:00.204Z,1.93
2018-08-04T12:12:28.623Z,3.77
2018-08-04T12:14:57.281Z,2.90
2018-08-04T12:17:25.804Z,5.40
2018-08-04T12:19:54.160Z,2.63
2018-08-04T12:22:23.176Z,3.33
2018-08-04T12:24:52.283Z,3.20
2018-08-04T12:27:20.679Z,1.53
2018-08-04T12:29:49.041Z,2.60
2018-08-04T12:32:17.408Z,3.00
2018-08-04T12:34:45.776Z,2.90
2018-08-04T12:37:14.925Z,3.40
2018-08-04T12:39:43.269Z,3.90
2018-08-04T12:42:11.778Z,2.73
2018-08-04T12:44:40.136Z,2.07
2018-08-04T12:47:08.627Z,3.63
2018-08-04T12:49:36.991Z,2.03
2018-08-04T12:52:05.446Z,3.13
2018-08-04T12:54:33.908Z,1.60
2018-08-04T12:57:02.848Z,1.90
2018-08-04T12:59:31.237Z,5.83
2018-08-04T13:01:59.614Z,3.43
2018-08-04T13:04:27.961Z,3.67
2018-08-04T13:06:56.997Z,2.83
2018-08-04T13:09:25.360Z,1.87
2018-08-04T13:11:53.892Z,2.57
2018-08-04T13:14:22.297Z,2.17
2018-08-04T13:16:50.687Z,1.77
2018-08-04T13:19:19.039Z,2.90
2018-08-04T13:21:47.523Z,2.73
2018-08-04T13:24:15.907Z,2.63
2018-08-04T13:26:44.468Z,1.80
2018-08-04T13:29:13.025Z,2.53
2018-08-04T13:31:41.398Z,2.20
2018-08-04T13:34:09.983Z,2.43
2018-08-04T13:36:38.391Z,1.50
2018-08-04T13:39:08.866Z,2.40
2018-08-04T13:41:37.654Z,1.70
2018-08-04T13:44:06.012Z,2.70
2018-08-04T13:46:34.477Z,1.93
2018-08-04T13:49:02.828Z,3.90
2018-08-04T13:51:31.244Z,3.20
2018-08-04T13:54:00.160Z,1.90
2018-08-04T13:56:28.655Z,2.70
2018-08-04T13:58:57.244Z,1.87
2018-08-04T14:01:25.672Z,2.00
2018-08-04T14:03:54.494Z,2.03
2018-08-04T14:06:22.899Z,2.60
2018-08-04T14:08:51.496Z,2.03
2018-08-04T14:11:19.851Z,1.90
2018-08-04T14:13:48.404Z,2.10
2018-08-04T14:16:16.837Z,2.07
2018-08-04T14:18:45.320Z,2.13
2018-08-04T14:21:13.725Z,1.80
2018-08-04T14:23:42.140Z,1.63
2018-08-04T14:26:10.604Z,1.63
2018-08-04T14:28:39.037Z,2.30
2018-08-04T14:31:07.497Z,4.63
2018-08-04T14:33:35.905Z,1.50
2018-08-04T14:36:04.526Z,1.97
2018-08-04T14:38:33.005Z,1.40
2018-08-04T14:41:01.546Z,4.03
2018-08-04T14:43:30.025Z,2.37
2018-08-04T14:45:58.384Z,1.23
2018-08-04T14:48:26.732Z,4.37
2018-08-04T14:50:55.392Z,1.97
2018-08-04T14:53:23.780Z,2.30
2018-08-04T14:55:52.156Z,1.37
2018-08-04T14:58:20.524Z,3.53
2018-08-04T15:00:48.918Z,3.67
2018-08-04T15:03:18.003Z,5.40
2018-08-04T15:05:46.363Z,4.17
2018-08-04T15:08:14.713Z,4.87
2018-08-04T15:10:43.082Z,3.07
2018-08-04T15:13:11.439Z,2.60
2018-08-04T15:15:39.819Z,3.40
2018-08-04T15:18:08.335Z,4.33
2018-08-04T15:20:36.762Z,3.10
2018-08-04T15:23:05.141Z,3.43
2018-08-04T15:25:33.576Z,6.20
2018-08-04T15:28:02.044Z,3.83
2018-08-04T15:30:30.428Z,5.80
2018-08-04T15:32:58.959Z,8.67
2018-08-04T15:35:27.324Z,6.07
2018-08-04T15:37:56.670Z,5.20
2018-08-04T15:40:25.196Z,7.13
2018-08-04T15:42:53.568Z,5.70
2018-08-04T15:45:21.956Z,6.77
2018-08-04T15:47:50.412Z,5.73
2018-08-04T15:50:19.440Z,7.60
2018-08-04T15:52:47.865Z,6.93
2018-08-04T15:55:16.936Z,5.03
2018-08-04T15:57:45.296Z,5.37
2018-08-04T16:00:13.689Z,5.07
2018-08-04T16:02:42.390Z,5.23
2018-08-04T16:05:10.792Z,4.40
2018-08-04T16:07:39.499Z,3.77
2018-08-04T16:10:08.063Z,5.17
2018-08-04T16:12:36.456Z,3.60
2018-08-04T16:15:05.485Z,3.63
2018-08-04T16:17:33.828Z,4.07
2018-08-04T16:20:02.352Z,4.17
2018-08-04T16:22:30.764Z,3.20
2018-08-04T16:24:59.647Z,3.67
2018-08-04T16:27:28.188Z,3.93
2018-08-04T16:29:56.597Z,3.87
2018-08-04T16:32:25.120Z,6.60
2018-08-04T16:34:53.687Z,3.27
2018-08-04T16:37:22.212Z,4.87
2018-08-04T16:39:50.604Z,4.30
2018-08-04T16:42:19.066Z,3.93
2018-08-04T16:44:47.760Z,3.50
2018-08-04T16:47:16.327Z,5.20
2018-08-04T16:49:44.761Z,3.67
2018-08-04T16:52:13.120Z,4.63
2018-08-04T16:54:41.559Z,3.20
2018-08-04T16:57:10.813Z,5.43
2018-08-04T16:59:39.196Z,4.23
2018-08-04T17:02:07.985Z,5.47
2018-08-04T17:04:36.928Z,3.47
2018-08-04T17:07:05.283Z,3.37
2018-08-04T17:09:34.089Z,6.87
2018-08-04T17:12:02.824Z,4.90
2018-08-04T17:14:31.207Z,6.10
2018-08-04T17:16:59.859Z,7.03
2018-08-04T17:19:43.059Z,4.97
2018-08-04T17:22:14.138Z,6.80
2018-08-04T17:24:42.768Z,6.70
2018-08-04T17:27:14.346Z,7.70
2018-08-04T17:29:46.676Z,6.27
2018-08-04T17:32:15.816Z,5.53
2018-08-04T17:34:44.243Z,9.97
2018-08-04T17:37:14.149Z,5.57
2018-08-04T17:39:42.540Z,8.17
2018-08-04T17:42:12.375Z,7.90
2018-08-04T17:44:48.322Z,6.87
2018-08-04T17:47:18.022Z,12.90
2018-08-04T17:49:46.459Z,8.57
2018-08-04T17:52:15.117Z,7.37
2018-08-04T17:54:43.616Z,7.50
2018-08-04T17:57:12.105Z,7.87
2018-08-04T17:59:40.938Z,6.07
2018-08-04T18:02:16.481Z,8.03
2018-08-04T18:04:45.640Z,9.83
2018-08-04T18:07:23.109Z,6.87
2018-08-04T18:09:51.558Z,6.93
2018-08-04T18:12:19.965Z,6.57
2018-08-04T18:14:48.526Z,7.97
2018-08-04T18:17:17.169Z,9.10
2018-08-04T18:19:45.850Z,7.33
2018-08-04T18:22:14.309Z,9.73
2018-08-04T18:24:42.940Z,5.67
2018-08-04T18:27:11.392Z,8.27
2018-08-04T18:29:40.251Z,8.00
2018-08-04T18:32:10.449Z,7.07
2018-08-04T18:34:39.084Z,8.53
2018-08-04T18:37:07.835Z,7.03
2018-08-04T18:39:36.733Z,6.50
2018-08-04T18:42:05.574Z,8.70
2018-08-04T18:44:34.623Z,7.30
2018-08-04T18:47:03.076Z,5.90
2018-08-04T18:49:31.929Z,8.47
2018-08-04T18:52:00.438Z,9.00
2018-08-04T18:54:29.038Z,9.73
2018-08-04T18:56:57.641Z,8.33
2018-08-04T18:59:26.083Z,6.50
2018-08-04T19:01:54.477Z,7.40
2018-08-04T19:04:22.884Z,6.73
2018-08-04T19:06:52.580Z,5.83
2018-08-04T19:09:21.109Z,7.70
2018-08-04T19:11:49.637Z,7.27
2018-08-04T19:14:18.552Z,7.07
2018-08-04T19:16:47.074Z,7.87
2018-08-04T19:19:15.787Z,6.40
2018-08-04T19:21:44.404Z,9.27
2018-08-04T19:24:13.965Z,5.60
2018-08-04T19:26:42.802Z,9.20
2018-08-04T19:29:16.209Z,4.80
2018-08-04T19:31:45.260Z,7.20
2018-08-04T19:34:14.453Z,8.80
2018-08-04T19:36:42.916Z,8.23
2018-08-04T19:39:11.543Z,5.10
2018-08-04T19:41:40.608Z,4.30
2018-08-04T19:44:08.791Z,4.67
2018-08-04T19:46:38.014Z,7.27
2018-08-04T19:49:06.818Z,5.37
2018-08-04T19:51:35.359Z,8.60
2018-08-04T19:54:04.336Z,4.57
2018-08-04T19:56:33.159Z,3.47
2018-08-04T19:59:01.924Z,7.20
2018-08-04T20:01:31.830Z,5.30
2018-08-04T20:04:00.926Z,6.27
2018-08-04T20:06:30.240Z,5.90
2018-08-04T20:08:58.402Z,5.47
2018-08-04T20:11:40.688Z,7.33
2018-08-04T20:14:10.118Z,9.30
2018-08-04T20:16:38.379Z,6.50
2018-08-04T20:19:07.855Z,7.77
2018-08-04T20:21:37.423Z,8.00
2018-08-04T20:24:06.759Z,7.03
2018-08-04T20:26:35.510Z,7.67
2018-08-04T20:29:04.194Z,7.67
2018-08-04T20:31:33.045Z,6.50
2018-08-04T20:34:01.515Z,6.90
